sensor_id;sensor_type;location;lat;lon;timestamp;pressure;altitude;pressure_sealevel;temperature;humidity
78800;BME280;68148;55.328;86.106;2023-08-08T00:01:04;98617.16;;;16.41;80.79
78800;BME280;68148;55.328;86.106;2023-08-08T00:03:31;98619.97;;;16.84;78.08
78800;BME280;68148;55.328;86.106;2023-08-08T00:05:58;98626.69;;;16.64;75.75
78800;BME280;68148;55.328;86.106;2023-08-08T00:08:23;98623.34;;;16.20;76.88
78800;BME280;68148;55.328;86.106;2023-08-08T00:10:49;98623.16;;;15.83;79.08
78800;BME280;68148;55.328;86.106;2023-08-08T00:13:15;98623.69;;;15.46;80.02
78800;BME280;68148;55.328;86.106;2023-08-08T00:15:41;98623.44;;;15.25;81.18
78800;BME280;68148;55.328;86.106;2023-08-08T00:18:09;98626.13;;;15.09;81.31
78800;BME280;68148;55.328;86.106;2023-08-08T00:20:35;98625.53;;;15.07;81.82
78800;BME280;68148;55.328;86.106;2023-08-08T00:23:01;98625.78;;;15.05;81.91
78800;BME280;68148;55.328;86.106;2023-08-08T00:25:27;98623.53;;;15.14;81.55
78800;BME280;68148;55.328;86.106;2023-08-08T00:27:53;98629.97;;;15.01;81.76
78800;BME280;68148;55.328;86.106;2023-08-08T00:30:18;98627.47;;;15.11;81.63
78800;BME280;68148;55.328;86.106;2023-08-08T00:32:44;98627.66;;;15.05;81.54
78800;BME280;68148;55.328;86.106;2023-08-08T00:35:10;98633.84;;;15.10;81.62
78800;BME280;68148;55.328;86.106;2023-08-08T00:37:37;98632.63;;;15.18;81.83
78800;BME280;68148;55.328;86.106;2023-08-08T00:40:03;98635.84;;;15.20;81.78
78800;BME280;68148;55.328;86.106;2023-08-08T00:42:29;98643.91;;;15.25;81.71
78800;BME280;68148;55.328;86.106;2023-08-08T00:44:54;98636.97;;;15.24;82.19
78800;BME280;68148;55.328;86.106;2023-08-08T00:47:21;98637.84;;;15.30;82.24
78800;BME280;68148;55.328;86.106;2023-08-08T00:49:47;98640.78;;;15.50;81.50
78800;BME280;68148;55.328;86.106;2023-08-08T00:52:13;98642.31;;;15.46;82.04
78800;BME280;68148;55.328;86.106;2023-08-08T00:54:39;98647.09;;;15.44;81.76
78800;BME280;68148;55.328;86.106;2023-08-08T00:57:06;98650.28;;;15.46;81.81
78800;BME280;68148;55.328;86.106;2023-08-08T00:59:31;98649.81;;;15.49;81.49
78800;BME280;68148;55.328;86.106;2023-08-08T01:01:57;98646.81;;;15.62;81.15
78800;BME280;68148;55.328;86.106;2023-08-08T01:04:25;98641.59;;;15.67;81.02
78800;BME280;68148;55.328;86.106;2023-08-08T01:09:31;98647.75;;;15.90;80.46
78800;BME280;68148;55.328;86.106;2023-08-08T01:12:00;98644.13;;;16.01;80.37
78800;BME280;68148;55.328;86.106;2023-08-08T01:14:28;98652.94;;;16.23;79.47
78800;BME280;68148;55.328;86.106;2023-08-08T01:16:55;98651.72;;;16.36;79.20
78800;BME280;68148;55.328;86.106;2023-08-08T01:19:23;98651.25;;;16.44;79.06
78800;BME280;68148;55.328;86.106;2023-08-08T01:21:53;98652.63;;;16.47;79.07
78800;BME280;68148;55.328;86.106;2023-08-08T01:24:22;98648.84;;;16.43;79.74
78800;BME280;68148;55.328;86.106;2023-08-08T01:26:48;98646.63;;;16.35;80.11
78800;BME280;68148;55.328;86.106;2023-08-08T01:29:14;98650.44;;;16.44;80.05
78800;BME280;68148;55.328;86.106;2023-08-08T01:31:40;98647.28;;;16.47;80.04
78800;BME280;68148;55.328;86.106;2023-08-08T01:34:07;98651.88;;;16.51;80.22
78800;BME280;68148;55.328;86.106;2023-08-08T01:36:54;98650.41;;;16.66;79.61
78800;BME280;68148;55.328;86.106;2023-08-08T01:39:25;98640.72;;;16.82;79.32
78800;BME280;68148;55.328;86.106;2023-08-08T01:41:54;98651.34;;;16.76;79.58
78800;BME280;68148;55.328;86.106;2023-08-08T01:44:20;98642.94;;;16.90;79.00
78800;BME280;68148;55.328;86.106;2023-08-08T01:46:47;98641.97;;;17.01;78.90
78800;BME280;68148;55.328;86.106;2023-08-08T01:49:13;98641.97;;;17.01;78.70
78800;BME280;68148;55.328;86.106;2023-08-08T01:51:39;98642.78;;;17.07;78.95
78800;BME280;68148;55.328;86.106;2023-08-08T01:54:04;98651.16;;;17.20;78.24
78800;BME280;68148;55.328;86.106;2023-08-08T01:56:30;98655.19;;;17.23;78.87
78800;BME280;68148;55.328;86.106;2023-08-08T01:58:56;98650.34;;;17.20;78.77
78800;BME280;68148;55.328;86.106;2023-08-08T02:01:22;98650.50;;;17.40;78.81
78800;BME280;68148;55.328;86.106;2023-08-08T02:03:48;98645.47;;;17.49;78.38
78800;BME280;68148;55.328;86.106;2023-08-08T02:06:14;98647.66;;;17.57;78.30
78800;BME280;68148;55.328;86.106;2023-08-08T02:08:48;98657.88;;;17.70;78.38
78800;BME280;68148;55.328;86.106;2023-08-08T02:11:14;98653.16;;;17.83;77.57
78800;BME280;68148;55.328;86.106;2023-08-08T02:13:40;98659.91;;;17.95;76.87
78800;BME280;68148;55.328;86.106;2023-08-08T02:16:06;98654.31;;;18.07;76.84
78800;BME280;68148;55.328;86.106;2023-08-08T02:18:32;98654.59;;;18.11;76.45
78800;BME280;68148;55.328;86.106;2023-08-08T02:20:58;98654.38;;;18.17;76.80
78800;BME280;68148;55.328;86.106;2023-08-08T02:23:23;98657.91;;;18.33;76.13
78800;BME280;68148;55.328;86.106;2023-08-08T02:25:50;98656.03;;;18.44;76.03
78800;BME280;68148;55.328;86.106;2023-08-08T02:28:15;98652.84;;;18.52;75.35
78800;BME280;68148;55.328;86.106;2023-08-08T02:30:41;98657.41;;;18.57;75.75
78800;BME280;68148;55.328;86.106;2023-08-08T02:33:07;98655.28;;;18.69;75.82
78800;BME280;68148;55.328;86.106;2023-08-08T02:35:33;98657.19;;;18.84;75.12
78800;BME280;68148;55.328;86.106;2023-08-08T02:37:59;98657.75;;;18.86;74.69
78800;BME280;68148;55.328;86.106;2023-08-08T02:40:25;98660.13;;;18.87;75.22
78800;BME280;68148;55.328;86.106;2023-08-08T02:42:50;98666.03;;;18.99;74.55
78800;BME280;68148;55.328;86.106;2023-08-08T02:45:16;98666.56;;;19.12;74.98
78800;BME280;68148;55.328;86.106;2023-08-08T02:47:42;98657.47;;;19.23;74.66
78800;BME280;68148;55.328;86.106;2023-08-08T02:50:08;98663.06;;;19.37;74.26
78800;BME280;68148;55.328;86.106;2023-08-08T02:52:34;98661.69;;;19.55;73.71
78800;BME280;68148;55.328;86.106;2023-08-08T02:55:00;98658.75;;;19.71;73.81
78800;BME280;68148;55.328;86.106;2023-08-08T02:57:26;98656.56;;;19.84;72.51
78800;BME280;68148;55.328;86.106;2023-08-08T02:59:51;98663.47;;;20.00;72.28
78800;BME280;68148;55.328;86.106;2023-08-08T03:02:17;98665.78;;;20.17;72.02
78800;BME280;68148;55.328;86.106;2023-08-08T03:04:43;98665.97;;;20.36;70.99
78800;BME280;68148;55.328;86.106;2023-08-08T03:07:09;98659.47;;;20.52;70.50
78800;BME280;68148;55.328;86.106;2023-08-08T03:09:35;98661.78;;;20.69;70.53
78800;BME280;68148;55.328;86.106;2023-08-08T03:12:00;98663.25;;;20.85;69.61
78800;BME280;68148;55.328;86.106;2023-08-08T03:14:26;98666.97;;;20.94;68.53
78800;BME280;68148;55.328;86.106;2023-08-08T03:16:52;98663.94;;;21.01;68.61
78800;BME280;68148;55.328;86.106;2023-08-08T03:19:18;98668.16;;;21.12;68.77
78800;BME280;68148;55.328;86.106;2023-08-08T03:21:44;98662.41;;;21.24;68.76
78800;BME280;68148;55.328;86.106;2023-08-08T03:24:10;98653.56;;;21.23;65.16
78800;BME280;68148;55.328;86.106;2023-08-08T03:26:35;98664.19;;;21.39;65.90
78800;BME280;68148;55.328;86.106;2023-08-08T03:29:03;98664.06;;;21.49;65.71
78800;BME280;68148;55.328;86.106;2023-08-08T03:31:29;98658.56;;;21.64;64.72
78800;BME280;68148;55.328;86.106;2023-08-08T03:33:54;98660.25;;;21.79;63.55
78800;BME280;68148;55.328;86.106;2023-08-08T03:36:20;98662.84;;;21.89;63.00
78800;BME280;68148;55.328;86.106;2023-08-08T03:38:46;98660.25;;;22.03;60.03
78800;BME280;68148;55.328;86.106;2023-08-08T03:41:12;98661.25;;;22.12;60.05
78800;BME280;68148;55.328;86.106;2023-08-08T03:43:39;98665.50;;;22.18;57.80
78800;BME280;68148;55.328;86.106;2023-08-08T03:46:06;98650.72;;;22.16;54.31
78800;BME280;68148;55.328;86.106;2023-08-08T03:48:32;98655.72;;;22.22;56.86
78800;BME280;68148;55.328;86.106;2023-08-08T03:50:58;98658.88;;;22.30;56.67
78800;BME280;68148;55.328;86.106;2023-08-08T03:53:23;98657.44;;;22.37;58.14
78800;BME280;68148;55.328;86.106;2023-08-08T03:55:49;98656.22;;;22.48;56.61
78800;BME280;68148;55.328;86.106;2023-08-08T03:58:15;98652.66;;;22.53;53.68
78800;BME280;68148;55.328;86.106;2023-08-08T04:00:41;98650.69;;;22.40;51.60
78800;BME280;68148;55.328;86.106;2023-08-08T04:03:08;98653.22;;;22.50;52.17
78800;BME280;68148;55.328;86.106;2023-08-08T04:05:33;98654.25;;;22.54;53.42
78800;BME280;68148;55.328;86.106;2023-08-08T04:07:59;98660.25;;;22.65;54.55
78800;BME280;68148;55.328;86.106;2023-08-08T04:10:25;98647.16;;;22.77;53.62
78800;BME280;68148;55.328;86.106;2023-08-08T04:12:51;98656.47;;;22.85;53.68
78800;BME280;68148;55.328;86.106;2023-08-08T04:15:17;98656.84;;;22.97;53.61
78800;BME280;68148;55.328;86.106;2023-08-08T04:17:42;98665.34;;;23.04;54.13
78800;BME280;68148;55.328;86.106;2023-08-08T04:20:08;98659.09;;;23.09;53.22
78800;BME280;68148;55.328;86.106;2023-08-08T04:22:34;98650.34;;;23.17;52.61
78800;BME280;68148;55.328;86.106;2023-08-08T04:25:00;98654.81;;;23.21;52.12
78800;BME280;68148;55.328;86.106;2023-08-08T04:27:26;98650.34;;;23.17;50.42
78800;BME280;68148;55.328;86.106;2023-08-08T04:29:52;98652.94;;;23.22;50.86
78800;BME280;68148;55.328;86.106;2023-08-08T04:32:18;98653.50;;;23.19;51.46
78800;BME280;68148;55.328;86.106;2023-08-08T04:34:43;98648.09;;;23.05;51.46
78800;BME280;68148;55.328;86.106;2023-08-08T04:37:09;98639.94;;;23.10;51.19
78800;BME280;68148;55.328;86.106;2023-08-08T04:39:35;98635.78;;;23.18;50.64
78800;BME280;68148;55.328;86.106;2023-08-08T04:42:01;98644.19;;;23.30;51.55
78800;BME280;68148;55.328;86.106;2023-08-08T04:44:26;98639.97;;;23.38;50.04
78800;BME280;68148;55.328;86.106;2023-08-08T04:46:52;98640.97;;;23.42;50.93
78800;BME280;68148;55.328;86.106;2023-08-08T04:49:18;98637.00;;;23.53;48.81
78800;BME280;68148;55.328;86.106;2023-08-08T04:51:44;98642.88;;;23.55;48.69
78800;BME280;68148;55.328;86.106;2023-08-08T04:54:10;98634.22;;;23.58;49.24
78800;BME280;68148;55.328;86.106;2023-08-08T04:56:35;98633.22;;;23.54;47.77
78800;BME280;68148;55.328;86.106;2023-08-08T04:59:01;98628.63;;;23.55;48.76
78800;BME280;68148;55.328;86.106;2023-08-08T05:01:27;98625.81;;;23.32;47.54
78800;BME280;68148;55.328;86.106;2023-08-08T05:03:56;98611.88;;;23.44;48.85
78800;BME280;68148;55.328;86.106;2023-08-08T05:06:22;98632.63;;;23.57;49.42
78800;BME280;68148;55.328;86.106;2023-08-08T05:08:49;98625.47;;;23.66;49.07
78800;BME280;68148;55.328;86.106;2023-08-08T05:11:15;98629.06;;;23.76;47.01
78800;BME280;68148;55.328;86.106;2023-08-08T05:13:41;98623.19;;;23.87;46.95
78800;BME280;68148;55.328;86.106;2023-08-08T05:16:07;98620.88;;;23.94;47.78
78800;BME280;68148;55.328;86.106;2023-08-08T05:18:32;98622.66;;;23.85;46.22
78800;BME280;68148;55.328;86.106;2023-08-08T05:20:58;98622.50;;;23.82;47.42
78800;BME280;68148;55.328;86.106;2023-08-08T05:23:24;98623.38;;;23.91;46.15
78800;BME280;68148;55.328;86.106;2023-08-08T05:25:50;98620.38;;;23.79;45.50
78800;BME280;68148;55.328;86.106;2023-08-08T05:28:17;98619.72;;;23.73;46.09
78800;BME280;68148;55.328;86.106;2023-08-08T05:30:43;98613.00;;;23.84;46.02
78800;BME280;68148;55.328;86.106;2023-08-08T05:33:09;98614.78;;;23.89;44.79
78800;BME280;68148;55.328;86.106;2023-08-08T05:35:35;98608.41;;;23.98;44.65
78800;BME280;68148;55.328;86.106;2023-08-08T05:38:01;98606.19;;;24.01;45.93
78800;BME280;68148;55.328;86.106;2023-08-08T05:40:27;98610.84;;;24.22;46.41
78800;BME280;68148;55.328;86.106;2023-08-08T05:42:52;98606.66;;;24.16;45.10
78800;BME280;68148;55.328;86.106;2023-08-08T05:45:18;98613.81;;;24.35;45.16
78800;BME280;68148;55.328;86.106;2023-08-08T05:47:44;98615.38;;;24.36;43.37
78800;BME280;68148;55.328;86.106;2023-08-08T05:50:10;98616.75;;;24.24;42.97
78800;BME280;68148;55.328;86.106;2023-08-08T05:52:36;98615.94;;;24.10;42.14
78800;BME280;68148;55.328;86.106;2023-08-08T05:55:02;98609.47;;;24.11;42.45
78800;BME280;68148;55.328;86.106;2023-08-08T05:57:28;98599.31;;;23.94;42.72
78800;BME280;68148;55.328;86.106;2023-08-08T05:59:54;98611.88;;;24.13;43.50
78800;BME280;68148;55.328;86.106;2023-08-08T06:02:20;98596.81;;;23.98;42.59
78800;BME280;68148;55.328;86.106;2023-08-08T06:04:46;98609.13;;;24.27;43.86
78800;BME280;68148;55.328;86.106;2023-08-08T06:07:12;98614.91;;;24.47;42.64
78800;BME280;68148;55.328;86.106;2023-08-08T06:09:38;98606.81;;;24.47;41.87
78800;BME280;68148;55.328;86.106;2023-08-08T06:12:04;98608.81;;;24.42;43.33
78800;BME280;68148;55.328;86.106;2023-08-08T06:14:30;98596.75;;;24.62;42.38
78800;BME280;68148;55.328;86.106;2023-08-08T06:16:56;98606.91;;;24.87;43.40
78800;BME280;68148;55.328;86.106;2023-08-08T06:19:22;98605.22;;;25.14;43.38
78800;BME280;68148;55.328;86.106;2023-08-08T06:21:48;98608.00;;;25.31;42.55
78800;BME280;68148;55.328;86.106;2023-08-08T06:24:14;98606.50;;;25.56;41.53
78800;BME280;68148;55.328;86.106;2023-08-08T06:26:40;98597.34;;;25.75;40.91
78800;BME280;68148;55.328;86.106;2023-08-08T06:29:06;98594.66;;;25.35;38.94
78800;BME280;68148;55.328;86.106;2023-08-08T06:31:32;98595.44;;;25.04;40.53
78800;BME280;68148;55.328;86.106;2023-08-08T06:33:58;98594.31;;;25.05;40.57
78800;BME280;68148;55.328;86.106;2023-08-08T06:36:24;98599.53;;;25.24;41.27
78800;BME280;68148;55.328;86.106;2023-08-08T06:38:50;98590.91;;;25.44;41.15
78800;BME280;68148;55.328;86.106;2023-08-08T06:41:16;98605.56;;;25.61;40.28
78800;BME280;68148;55.328;86.106;2023-08-08T06:43:42;98603.13;;;25.42;40.31
78800;BME280;68148;55.328;86.106;2023-08-08T06:46:08;98600.28;;;25.47;38.08
78800;BME280;68148;55.328;86.106;2023-08-08T06:48:34;98608.66;;;25.37;39.36
78800;BME280;68148;55.328;86.106;2023-08-08T06:51:00;98598.25;;;25.21;38.56
78800;BME280;68148;55.328;86.106;2023-08-08T06:53:26;98597.53;;;25.38;39.82
78800;BME280;68148;55.328;86.106;2023-08-08T06:55:52;98606.38;;;25.61;39.58
78800;BME280;68148;55.328;86.106;2023-08-08T06:58:18;98606.81;;;25.15;38.52
78800;BME280;68148;55.328;86.106;2023-08-08T07:00:44;98601.25;;;25.51;38.39
78800;BME280;68148;55.328;86.106;2023-08-08T07:03:11;98604.66;;;25.65;38.90
78800;BME280;68148;55.328;86.106;2023-08-08T07:05:38;98607.44;;;25.83;38.99
78800;BME280;68148;55.328;86.106;2023-08-08T07:08:04;98610.28;;;25.95;39.20
78800;BME280;68148;55.328;86.106;2023-08-08T07:10:31;98601.72;;;26.02;38.21
78800;BME280;68148;55.328;86.106;2023-08-08T07:12:56;98606.34;;;26.01;38.83
78800;BME280;68148;55.328;86.106;2023-08-08T07:15:22;98604.59;;;26.14;38.85
78800;BME280;68148;55.328;86.106;2023-08-08T07:17:48;98601.59;;;26.24;38.61
78800;BME280;68148;55.328;86.106;2023-08-08T07:20:14;98605.72;;;26.13;38.46
78800;BME280;68148;55.328;86.106;2023-08-08T07:22:41;98602.69;;;26.06;38.03
78800;BME280;68148;55.328;86.106;2023-08-08T07:25:07;98605.97;;;25.85;36.07
78800;BME280;68148;55.328;86.106;2023-08-08T07:27:33;98608.25;;;25.61;35.86
78800;BME280;68148;55.328;86.106;2023-08-08T07:29:58;98613.50;;;25.57;36.10
78800;BME280;68148;55.328;86.106;2023-08-08T07:32:25;98618.81;;;25.71;35.27
78800;BME280;68148;55.328;86.106;2023-08-08T07:34:51;98616.97;;;25.89;36.49
78800;BME280;68148;55.328;86.106;2023-08-08T07:37:16;98608.25;;;26.09;36.91
78800;BME280;68148;55.328;86.106;2023-08-08T07:39:42;98613.19;;;26.07;36.47
78800;BME280;68148;55.328;86.106;2023-08-08T07:42:08;98615.41;;;25.96;36.96
78800;BME280;68148;55.328;86.106;2023-08-08T07:44:33;98613.25;;;25.76;37.45
78800;BME280;68148;55.328;86.106;2023-08-08T07:46:59;98613.97;;;26.08;36.75
78800;BME280;68148;55.328;86.106;2023-08-08T07:49:25;98611.59;;;26.06;35.83
78800;BME280;68148;55.328;86.106;2023-08-08T07:51:50;98615.59;;;26.26;35.99
78800;BME280;68148;55.328;86.106;2023-08-08T07:54:16;98620.06;;;26.39;35.52
78800;BME280;68148;55.328;86.106;2023-08-08T07:56:42;98622.16;;;26.42;35.93
78800;BME280;68148;55.328;86.106;2023-08-08T07:59:07;98602.56;;;26.71;36.17
78800;BME280;68148;55.328;86.106;2023-08-08T08:01:33;98620.22;;;26.43;35.43
78800;BME280;68148;55.328;86.106;2023-08-08T08:03:59;98622.94;;;26.43;35.67
78800;BME280;68148;55.328;86.106;2023-08-08T08:06:25;98619.78;;;26.50;36.03
78800;BME280;68148;55.328;86.106;2023-08-08T08:08:51;98612.59;;;26.45;36.56
78800;BME280;68148;55.328;86.106;2023-08-08T08:11:16;98614.69;;;26.48;36.96
78800;BME280;68148;55.328;86.106;2023-08-08T08:13:42;98614.66;;;26.74;36.32
78800;BME280;68148;55.328;86.106;2023-08-08T08:16:08;98613.53;;;26.84;36.06
78800;BME280;68148;55.328;86.106;2023-08-08T08:18:34;98606.88;;;26.81;35.86
78800;BME280;68148;55.328;86.106;2023-08-08T08:20:59;98612.44;;;26.67;34.19
78800;BME280;68148;55.328;86.106;2023-08-08T08:23:25;98612.94;;;26.69;34.89
78800;BME280;68148;55.328;86.106;2023-08-08T08:25:51;98614.31;;;26.32;34.91
78800;BME280;68148;55.328;86.106;2023-08-08T08:28:18;98620.69;;;26.36;35.05
78800;BME280;68148;55.328;86.106;2023-08-08T08:30:44;98618.59;;;26.25;35.88
78800;BME280;68148;55.328;86.106;2023-08-08T08:33:09;98621.16;;;26.12;35.62
78800;BME280;68148;55.328;86.106;2023-08-08T08:35:38;98612.22;;;26.12;36.76
78800;BME280;68148;55.328;86.106;2023-08-08T08:38:04;98611.78;;;26.18;36.24
78800;BME280;68148;55.328;86.106;2023-08-08T08:40:33;98613.69;;;26.27;36.22
78800;BME280;68148;55.328;86.106;2023-08-08T08:43:02;98614.94;;;26.29;36.09
78800;BME280;68148;55.328;86.106;2023-08-08T08:45:28;98612.91;;;26.35;34.83
78800;BME280;68148;55.328;86.106;2023-08-08T08:47:56;98613.22;;;26.42;35.89
78800;BME280;68148;55.328;86.106;2023-08-08T08:50:22;98612.59;;;26.62;36.02
78800;BME280;68148;55.328;86.106;2023-08-08T08:52:49;98619.91;;;26.88;35.29
78800;BME280;68148;55.328;86.106;2023-08-08T08:55:16;98607.13;;;27.14;34.57
78800;BME280;68148;55.328;86.106;2023-08-08T08:57:42;98617.28;;;27.26;34.17
78800;BME280;68148;55.328;86.106;2023-08-08T09:00:08;98616.50;;;27.26;34.10
78800;BME280;68148;55.328;86.106;2023-08-08T09:02:34;98616.50;;;27.26;34.29
78800;BME280;68148;55.328;86.106;2023-08-08T09:05:00;98619.50;;;27.33;34.55
78800;BME280;68148;55.328;86.106;2023-08-08T09:07:31;98616.88;;;27.45;34.23
78800;BME280;68148;55.328;86.106;2023-08-08T09:09:58;98605.31;;;27.27;34.32
78800;BME280;68148;55.328;86.106;2023-08-08T09:12:24;98614.44;;;27.23;35.62
78800;BME280;68148;55.328;86.106;2023-08-08T09:14:55;98613.81;;;27.08;34.03
78800;BME280;68148;55.328;86.106;2023-08-08T09:17:21;98608.38;;;27.26;34.65
78800;BME280;68148;55.328;86.106;2023-08-08T09:19:47;98617.50;;;27.04;34.28
78800;BME280;68148;55.328;86.106;2023-08-08T09:22:14;98613.81;;;27.08;35.07
78800;BME280;68148;55.328;86.106;2023-08-08T09:24:41;98610.13;;;27.21;35.15
78800;BME280;68148;55.328;86.106;2023-08-08T09:27:08;98607.94;;;27.53;34.26
78800;BME280;68148;55.328;86.106;2023-08-08T09:29:34;98610.47;;;27.58;33.92
78800;BME280;68148;55.328;86.106;2023-08-08T09:32:03;98613.31;;;27.15;33.03
78800;BME280;68148;55.328;86.106;2023-08-08T09:34:28;98621.44;;;27.06;33.87
78800;BME280;68148;55.328;86.106;2023-08-08T09:36:55;98615.25;;;27.14;34.16
78800;BME280;68148;55.328;86.106;2023-08-08T09:39:21;98624.66;;;27.08;34.39
78800;BME280;68148;55.328;86.106;2023-08-08T09:41:49;98609.09;;;26.53;35.69
78800;BME280;68148;55.328;86.106;2023-08-08T09:44:16;98618.59;;;26.25;36.44
78800;BME280;68148;55.328;86.106;2023-08-08T09:46:41;98613.19;;;26.07;37.12
78800;BME280;68148;55.328;86.106;2023-08-08T09:49:10;98610.16;;;25.91;37.19
78800;BME280;68148;55.328;86.106;2023-08-08T09:51:36;98614.56;;;25.79;37.70
78800;BME280;68148;55.328;86.106;2023-08-08T09:54:04;98613.16;;;25.90;37.65
78800;BME280;68148;55.328;86.106;2023-08-08T09:56:30;98609.84;;;26.10;37.46
78800;BME280;68148;55.328;86.106;2023-08-08T09:58:57;98612.25;;;26.20;37.12
78800;BME280;68148;55.328;86.106;2023-08-08T10:01:24;98613.38;;;26.37;37.19
78800;BME280;68148;55.328;86.106;2023-08-08T10:03:51;98603.69;;;26.53;36.09
78800;BME280;68148;55.328;86.106;2023-08-08T10:06:17;98601.47;;;26.73;36.38
78800;BME280;68148;55.328;86.106;2023-08-08T10:08:45;98603.97;;;26.95;35.74
78800;BME280;68148;55.328;86.106;2023-08-08T10:11:11;98591.59;;;26.77;36.04
78800;BME280;68148;55.328;86.106;2023-08-08T10:13:37;98603.63;;;26.96;35.72
78800;BME280;68148;55.328;86.106;2023-08-08T10:16:07;98598.72;;;26.99;36.63
78800;BME280;68148;55.328;86.106;2023-08-08T10:18:33;98600.28;;;27.00;35.91
78800;BME280;68148;55.328;86.106;2023-08-08T10:20:59;98599.72;;;26.51;36.91
78800;BME280;68148;55.328;86.106;2023-08-08T10:23:26;98601.94;;;26.75;36.13
78800;BME280;68148;55.328;86.106;2023-08-08T10:26:01;98585.53;;;26.62;36.73
78800;BME280;68148;55.328;86.106;2023-08-08T10:28:27;98603.22;;;26.68;37.51
78800;BME280;68148;55.328;86.106;2023-08-08T10:30:57;98600.19;;;26.53;37.08
78800;BME280;68148;55.328;86.106;2023-08-08T10:33:26;98604.66;;;26.57;36.55
78800;BME280;68148;55.328;86.106;2023-08-08T10:36:02;98609.59;;;26.73;36.81
78800;BME280;68148;55.328;86.106;2023-08-08T10:38:49;98612.94;;;26.52;36.42
78800;BME280;68148;55.328;86.106;2023-08-08T10:41:17;98601.94;;;26.66;36.05
78800;BME280;68148;55.328;86.106;2023-08-08T10:43:51;98594.94;;;26.74;36.03
78800;BME280;68148;55.328;86.106;2023-08-08T10:46:25;98597.31;;;26.49;35.90
78800;BME280;68148;55.328;86.106;2023-08-08T10:48:53;98605.94;;;26.68;36.22
78800;BME280;68148;55.328;86.106;2023-08-08T10:51:19;98606.22;;;26.58;36.02
78800;BME280;68148;55.328;86.106;2023-08-08T10:53:45;98616.44;;;26.61;35.29
78800;BME280;68148;55.328;86.106;2023-08-08T10:56:12;98612.94;;;26.69;35.73
78800;BME280;68148;55.328;86.106;2023-08-08T10:58:41;98607.66;;;26.73;35.37
78800;BME280;68148;55.328;86.106;2023-08-08T11:01:07;98605.09;;;26.42;36.33
78800;BME280;68148;55.328;86.106;2023-08-08T11:03:38;98605.13;;;26.51;36.64
78800;BME280;68148;55.328;86.106;2023-08-08T11:06:08;98608.63;;;26.77;36.66
78800;BME280;68148;55.328;86.106;2023-08-08T11:08:35;98608.44;;;26.91;35.88
78800;BME280;68148;55.328;86.106;2023-08-08T11:11:02;98614.66;;;26.74;36.94
78800;BME280;68148;55.328;86.106;2023-08-08T11:13:28;98609.69;;;26.85;36.47
78800;BME280;68148;55.328;86.106;2023-08-08T11:15:53;98604.94;;;26.82;37.03
78800;BME280;68148;55.328;86.106;2023-08-08T11:18:19;98610.69;;;26.71;37.14
78800;BME280;68148;55.328;86.106;2023-08-08T11:20:45;98609.06;;;26.36;37.14
78800;BME280;68148;55.328;86.106;2023-08-08T11:23:11;98612.03;;;25.91;38.61
78800;BME280;68148;55.328;86.106;2023-08-08T11:25:40;98611.56;;;25.89;38.71
78800;BME280;68148;55.328;86.106;2023-08-08T11:28:06;98614.72;;;25.82;38.84
78800;BME280;68148;55.328;86.106;2023-08-08T11:30:36;98622.19;;;25.77;38.83
78800;BME280;68148;55.328;86.106;2023-08-08T11:33:04;98615.69;;;25.86;38.94
78800;BME280;68148;55.328;86.106;2023-08-08T11:35:30;98617.16;;;26.10;38.54
78800;BME280;68148;55.328;86.106;2023-08-08T11:37:57;98611.66;;;26.50;37.53
78800;BME280;68148;55.328;86.106;2023-08-08T11:40:26;98626.28;;;26.75;36.91
78800;BME280;68148;55.328;86.106;2023-08-08T11:42:54;98628.34;;;26.78;37.58
78800;BME280;68148;55.328;86.106;2023-08-08T11:45:20;98624.84;;;26.94;37.66
78800;BME280;68148;55.328;86.106;2023-08-08T11:47:50;98627.34;;;27.17;37.09
78800;BME280;68148;55.328;86.106;2023-08-08T11:50:16;98623.22;;;27.19;37.03
78800;BME280;68148;55.328;86.106;2023-08-08T11:52:45;98619.13;;;26.79;37.12
78800;BME280;68148;55.328;86.106;2023-08-08T11:55:13;98635.84;;;26.72;36.99
78800;BME280;68148;55.328;86.106;2023-08-08T11:57:40;98628.81;;;26.88;37.17
78800;BME280;68148;55.328;86.106;2023-08-08T12:00:10;98626.25;;;26.92;37.14
78800;BME280;68148;55.328;86.106;2023-08-08T12:02:36;98624.31;;;27.18;37.01
78800;BME280;68148;55.328;86.106;2023-08-08T12:05:06;98628.97;;;26.92;36.63
78800;BME280;68148;55.328;86.106;2023-08-08T12:07:33;98627.19;;;27.05;37.03
78800;BME280;68148;55.328;86.106;2023-08-08T12:09:58;98628.34;;;26.95;37.26
78800;BME280;68148;55.328;86.106;2023-08-08T12:12:27;98635.16;;;27.18;37.47
78800;BME280;68148;55.328;86.106;2023-08-08T12:14:55;98635.47;;;27.08;37.54
78800;BME280;68148;55.328;86.106;2023-08-08T12:17:21;98638.69;;;26.76;37.95
78800;BME280;68148;55.328;86.106;2023-08-08T12:19:47;98635.38;;;26.53;38.41
78800;BME280;68148;55.328;86.106;2023-08-08T12:22:15;98638.75;;;25.84;39.80
78800;BME280;68148;55.328;86.106;2023-08-08T12:24:40;98643.75;;;25.68;40.28
78800;BME280;68148;55.328;86.106;2023-08-08T12:27:06;98645.19;;;25.34;40.49
78800;BME280;68148;55.328;86.106;2023-08-08T12:29:32;98646.25;;;25.25;40.32
78800;BME280;68148;55.328;86.106;2023-08-08T12:31:58;98645.81;;;25.31;40.55
78800;BME280;68148;55.328;86.106;2023-08-08T12:34:24;98646.00;;;25.12;40.65
78800;BME280;68148;55.328;86.106;2023-08-08T12:36:49;98655.09;;;24.94;40.83
78800;BME280;68148;55.328;86.106;2023-08-08T12:39:15;98655.56;;;24.73;41.44
78800;BME280;68148;55.328;86.106;2023-08-08T12:41:41;98645.50;;;24.65;41.78
78800;BME280;68148;55.328;86.106;2023-08-08T12:44:07;98651.13;;;24.55;42.46
78800;BME280;68148;55.328;86.106;2023-08-08T12:46:33;98645.34;;;24.48;42.80
78800;BME280;68148;55.328;86.106;2023-08-08T12:48:58;98650.09;;;24.65;42.39